»·PEaware :: N630HR KSNA-KBLH

N630HR :: KSNA-KBLH

FLIGHT INFORMATION

Flight Status: Arrived
Operator: Privately registered:
United States
More flights under this callsign
Pilot: Drew L. (13237)
Aircraft: CESSNA 172 SKYHAWK
(C172)
More flights by this aircraft type
Origin: KSNA John Wayne-Orange Co
United States
Destination: KBLH Blythe
United States
More flights between these airports :: More routes between these airports
Route: +
File this flight plan on PilotEdge
Remarks:
Altitude:
(Current/Filed)
4,500ft
Speed:
(Current/Filed)
0kts
Departed: 02-Aug-17 04:26 PM
Arrived: 02-Aug-17 06:03 PM
Distance/Time
Traveled:
158nm/1:37
Distance/Time
To Go:
Arrived

Flight Plot

Page will automatically refresh every two minutes.

Flight plan parsing failed; only flown route is shown


Map Options




Map Legend


Flown Route
Filed Route
Departure Airport
Arrival Airport
Navaid (VOR, NDB)
Fix

Horizontal Profiles

Position Reports

Time Latitude Longitude Heading Altitude Ground
Speed
02-Aug-17 16:13 33.676728 -117.870549 115 59ft 0kts
02-Aug-17 16:14 33.676728 -117.870549 115 59ft 0kts
02-Aug-17 16:15 33.676728 -117.870549 115 59ft 0kts
02-Aug-17 16:16 33.676728 -117.870549 115 59ft 0kts
02-Aug-17 16:17 33.676728 -117.870549 115 59ft 0kts
02-Aug-17 16:18 33.676728 -117.870549 115 59ft 0kts
02-Aug-17 16:19 33.676728 -117.870549 115 59ft 0kts
02-Aug-17 16:20 33.676650 -117.870348 117 59ft 0kts
02-Aug-17 16:21 33.676650 -117.870348 117 59ft 0kts
02-Aug-17 16:22 33.676650 -117.870348 117 59ft 0kts
02-Aug-17 16:23 33.676646 -117.870339 114 59ft 0kts
02-Aug-17 16:24 33.679094 -117.868212 23 59ft 20kts
02-Aug-17 16:25 33.681184 -117.866374 117 59ft 0kts
02-Aug-17 16:26 33.681184 -117.866374 117 59ft 0kts
02-Aug-17 16:27 33.681172 -117.866347 118 59ft 3kts
02-Aug-17 16:28 33.680515 -117.865774 207 59ft 0kts
02-Aug-17 16:29 33.678871 -117.866857 208 59ft 55kts
02-Aug-17 16:30 33.663564 -117.863451 95 870ft 88kts
02-Aug-17 16:31 33.664441 -117.834819 91 1671ft 78kts
02-Aug-17 16:32 33.666086 -117.812778 81 2244ft 69kts
02-Aug-17 16:33 33.668624 -117.785943 91 2864ft 98kts
02-Aug-17 16:34 33.669348 -117.750409 91 2965ft 119kts
02-Aug-17 16:35 33.669894 -117.709168 91 2949ft 129kts
02-Aug-17 16:36 33.670329 -117.666648 91 2943ft 130kts
02-Aug-17 16:37 33.670671 -117.623957 91 2942ft 130kts
02-Aug-17 16:38 33.670991 -117.583046 91 3269ft 108kts
02-Aug-17 16:39 33.671658 -117.551508 91 3896ft 87kts
02-Aug-17 16:40 33.673218 -117.525090 91 4453ft 86kts
02-Aug-17 16:41 33.673677 -117.490823 93 4486ft 115kts
02-Aug-17 16:42 33.673612 -117.451827 93 4415ft 118kts
02-Aug-17 16:43 33.673315 -117.412372 94 4449ft 122kts
02-Aug-17 16:44 33.672934 -117.371895 94 4450ft 122kts
02-Aug-17 16:45 33.672560 -117.332693 94 4454ft 122kts
02-Aug-17 16:46 33.672180 -117.292894 94 4458ft 121kts
02-Aug-17 16:47 33.671777 -117.253391 94 4462ft 121kts
02-Aug-17 16:48 33.671353 -117.213537 94 4466ft 121kts
02-Aug-17 16:49 33.670915 -117.173739 94 4470ft 121kts
02-Aug-17 16:50 33.670464 -117.134047 95 4474ft 120kts
02-Aug-17 16:51 33.669925 -117.094474 94 4471ft 120kts
02-Aug-17 16:52 33.669325 -117.055276 92 4458ft 119kts
02-Aug-17 16:53 33.668831 -117.017651 91 4787ft 104kts
02-Aug-17 16:54 33.668508 -116.988809 90 5326ft 92kts
02-Aug-17 16:55 33.668184 -116.959529 89 5951ft 86kts
02-Aug-17 16:56 33.667883 -116.931977 89 6589ft 82kts
02-Aug-17 16:57 33.667596 -116.905780 88 7231ft 78kts
02-Aug-17 16:58 33.667328 -116.881134 88 7866ft 73kts
02-Aug-17 16:59 33.667120 -116.858117 89 8492ft 67kts
02-Aug-17 17:00 33.666957 -116.837375 89 9082ft 59kts
02-Aug-17 17:01 33.666788 -116.816660 91 9403ft 82kts
02-Aug-17 17:02 33.666167 -116.784900 91 9432ft 112kts
02-Aug-17 17:03 33.665468 -116.747732 91 9111ft 109kts
02-Aug-17 17:04 33.664843 -116.712435 91 8696ft 107kts
02-Aug-17 17:05 33.664296 -116.678002 90 8428ft 95kts
02-Aug-17 17:06 33.663885 -116.649587 90 8426ft 80kts
02-Aug-17 17:07 33.663517 -116.624267 90 8428ft 75kts
02-Aug-17 17:08 33.663145 -116.599443 90 8405ft 74kts
02-Aug-17 17:09 33.662772 -116.575325 90 8402ft 72kts
02-Aug-17 17:10 33.662403 -116.551881 90 8399ft 71kts
02-Aug-17 17:11 33.662016 -116.528252 89 8419ft 81kts
02-Aug-17 17:12 33.661532 -116.495539 90 8425ft 113kts
02-Aug-17 17:13 33.660926 -116.461058 90 8376ft 97kts
02-Aug-17 17:14 33.660378 -116.430619 90 8373ft 90kts
02-Aug-17 17:15 33.659867 -116.401376 90 8373ft 88kts
02-Aug-17 17:16 33.659361 -116.372377 90 8371ft 88kts
02-Aug-17 17:17 33.658863 -116.344483 90 8371ft 88kts
02-Aug-17 17:18 33.658322 -116.313885 90 8381ft 99kts
02-Aug-17 17:19 33.657711 -116.280427 91 8370ft 104kts
02-Aug-17 17:20 33.657065 -116.245805 91 8363ft 106kts
02-Aug-17 17:21 33.656407 -116.210982 91 8358ft 106kts
02-Aug-17 17:22 33.655741 -116.176134 91 8354ft 106kts
02-Aug-17 17:23 33.655069 -116.141324 91 8352ft 106kts
02-Aug-17 17:24 33.654385 -116.106526 91 8352ft 106kts
02-Aug-17 17:25 33.653693 -116.071727 91 8352ft 106kts
02-Aug-17 17:26 33.652997 -116.037206 91 8352ft 106kts
02-Aug-17 17:27 33.652284 -116.002392 91 8352ft 106kts
02-Aug-17 17:28 33.651565 -115.967694 91 8352ft 106kts
02-Aug-17 17:29 33.650832 -115.932825 91 8352ft 105kts
02-Aug-17 17:30 33.650097 -115.898310 90 8352ft 105kts
02-Aug-17 17:31 33.649346 -115.863538 90 8352ft 105kts
02-Aug-17 17:32 33.648590 -115.828928 90 8352ft 105kts
02-Aug-17 17:33 33.647824 -115.794346 90 8352ft 105kts
02-Aug-17 17:34 33.647048 -115.759692 90 8351ft 105kts
02-Aug-17 17:35 33.646260 -115.724959 91 8351ft 105kts
02-Aug-17 17:36 33.645467 -115.690488 90 8351ft 105kts
02-Aug-17 17:37 33.644662 -115.655848 90 8351ft 105kts
02-Aug-17 17:38 33.643986 -115.627043 91 8351ft 105kts
02-Aug-17 17:39 33.643024 -115.586673 91 8351ft 105kts
02-Aug-17 17:40 33.642194 -115.552188 90 8351ft 105kts
02-Aug-17 17:41 33.641351 -115.517574 90 8351ft 105kts
02-Aug-17 17:42 33.640639 -115.488715 91 8351ft 105kts
02-Aug-17 17:43 33.639781 -115.454235 91 8351ft 105kts
02-Aug-17 17:44 33.638945 -115.419621 91 8354ft 105kts
02-Aug-17 17:45 33.638012 -115.379708 92 8363ft 104kts
02-Aug-17 17:46 33.637312 -115.351320 93 8370ft 104kts
02-Aug-17 17:47 33.636454 -115.317819 94 8380ft 104kts
02-Aug-17 17:48 33.635525 -115.283493 95 8388ft 105kts
02-Aug-17 17:49 33.634577 -115.248820 96 8395ft 105kts
02-Aug-17 17:50 33.633640 -115.214114 97 8403ft 106kts
02-Aug-17 17:51 33.632665 -115.179452 97 8409ft 107kts
02-Aug-17 17:52 33.631657 -115.144206 97 8408ft 107kts
02-Aug-17 17:53 33.630684 -115.109452 97 8408ft 105kts
02-Aug-17 17:54 33.629736 -115.074142 98 7191ft 101kts
02-Aug-17 17:55 33.628866 -115.042325 98 6152ft 95kts
02-Aug-17 17:56 33.627965 -115.011698 99 5152ft 93kts
02-Aug-17 17:57 33.626938 -114.979404 98 4413ft 109kts
02-Aug-17 17:58 33.625867 -114.942073 97 4042ft 116kts
02-Aug-17 17:59 33.624817 -114.904548 97 3844ft 113kts
02-Aug-17 18:00 33.623760 -114.868255 98 3626ft 108kts
02-Aug-17 18:01 33.622723 -114.833160 98 3174ft 100kts
02-Aug-17 18:02 33.621758 -114.801625 98 2220ft 94kts
02-Aug-17 18:03 33.620845 -114.772129 97 1514ft 72kts
02-Aug-17 18:04 33.618678 -114.747988 114 944ft 68kts
02-Aug-17 18:05 33.616731 -114.724147 92 408ft 67kts
02-Aug-17 18:06 33.615151 -114.714542 95 393ft 0kts

Navigation Log

Ident Type
Flight plan parsing failed, navigation log unavailable